Главная страница
METAR-TAF:

METAR-TAF

Аэропорты :

Шереметьево

Москва-Шереметьево, Россия

широта: 55-58N, долгота: 037-25E, высота над уровнем моря: 190 м

Текущие метеонаблюдения

Эта сводка был подготовлена 44 минут назад, в 23:30 UTC
Ветер 4 Узел от северо-восточный
Температура -11°C
Влажность 92%
Давление 1036 hPa
Видимость: 4100 м
Рассеянная облачность на высоте 3100 фута
небольшой снег

METAR: UUEE 182330Z 05002MPS 4100 -SN BKN031 M11/M12 Q1036 R24L/450145 NOSIG

Время: 03:14 (00:14 UTC)

Прогноз

Эта сводка был подготовлена 1 час и 12 минут назад, в 23:02 UTC
Прогноз действительный с 19-го 00 UTC до 19-го 24 UTC
Ветер 4 Узел от восточно-юго-восточный
Видимость: 3100 м
Рассеянная облачность на высоте 1100 фута
небольшой снег, дымка
временами
С 19-го 00 UTC до 19-го 09 UTC
Видимость: 1000 м
Отдельные облака на высоте 400 фута
небольшой снег, дымка

TAF: UUEE 182302Z 1900/1924 12002MPS 3100 -SN BR BKN011 TXM11/1912Z TNM16/1906Z TEMPO 1900/1909 1000 -SN BR SCT004

Метеонаблюдения и прогнозы для более 4000 аэропортов (сводки METAR и TAF).

Имеющиеся станции представлены на карте желтыми и красными точками.

Чтобы увидеть название станции, наведите на нее мышь.

Затем щелкните, чтобы увидеть метеонаблюдения и метеопрогнозы.

Управление картой: чтобы увеличить масштаб, щелкните зеленые кнопки с черным крестиком; чтобы уменьшить масштаб, щелкните зеленую кнопку с тире; для просмотра соседних карт щелкайте зеленые стрелки.


METAR-TAF: